Weather at General Wayne A. Downing Peoria International Airport

Public forecast

Using degrees Fahrenheit for public forecast. Weather courtesy of forecast.io.

Current aviation weather report (METAR) for General Wayne A. Downing Peoria International Airport

Retrieved 2021/08/02 11:54 UTC (55 minutes ago):

KPIA 021154Z 00000KT 5SM BR CLR 16/14 A3019 RMK AO2 SLP219 T01560139 10172 20144 53012

Aviation forecast (TAF) for General Wayne A. Downing Peoria International Airport

Retrieved 2021/08/02 12:22 UTC (27 minutes ago):

TAF KPIA 021120Z 0212/0312 VRB03KT 4SM BR SKC FM021400 02005KT P6SM SKC FM021700 02007KT P6SM BKN035 FM022300 VRB03KT P6SM FEW050